Time;durP1;ratioP1;P1;durP2;ratioP2;P2;SDS_P1;SDS_P2;PMS_P1;PMS_P2;Temp;Humidity;BMP_temperature;BMP_pressure;BME280_temperature;BME280_humidity;BME280_pressure;Samples;Min_cycle;Max_cycle;Signal;HPM_P1;HPM_P2
2024/01/06 00:02:10;;;;;;;;;;;12.50;52.80;;;12.64;56.22;99359.78;5085222;28;20386;-35
2024/01/06 00:04:38;;;;;;;;;;;12.50;52.80;;;12.62;56.25;99363.75;5089037;28;19970;-34
2024/01/06 00:07:06;;;;;;;;;;;12.50;52.90;;;12.57;55.62;99354.88;5076060;28;19928;-35
2024/01/06 00:09:34;;;;;;;;;;;12.50;53.60;;;12.57;56.78;99369.06;5094123;28;20410;-36
2024/01/06 00:12:04;;;;;;;;;;;12.50;53.00;;;12.51;55.88;99369.31;5085301;28;20411;-35
2024/01/06 00:14:32;;;;;;;;;;;12.40;53.00;;;12.53;56.26;99370.34;5087055;28;19924;-35
2024/01/06 00:17:00;;;;;;;;;;;12.40;53.10;;;12.51;56.57;99374.34;5093969;28;19924;-35
2024/01/06 00:19:28;;;;;;;;;;;12.40;53.10;;;12.47;56.03;99373.13;5086402;28;19931;-35
2024/01/06 00:21:56;;;;;;;;;;;12.30;53.10;;;12.46;56.44;99376.38;5077796;28;20348;-35
2024/01/06 00:24:24;;;;;;;;;;;12.30;53.10;;;12.45;56.54;99368.69;5066631;28;19924;-35
2024/01/06 00:26:52;;;;;;;;;;;12.30;53.20;;;12.44;55.97;99371.94;5074650;28;19963;-36
2024/01/06 00:29:21;;;;;;;;;;;12.30;53.20;;;12.43;56.09;99385.22;5073570;28;19928;-37
2024/01/06 00:31:49;;;;;;;;;;;12.30;53.30;;;12.42;57.18;99389.34;5074675;28;20011;-35
2024/01/06 00:34:17;;;;;;;;;;;12.30;53.30;;;12.43;56.65;99395.28;5082635;28;19924;-35
2024/01/06 00:36:45;;;;;;;;;;;12.30;53.30;;;12.40;56.69;99388.31;5081030;28;19977;-35
2024/01/06 00:39:13;;;;;;;;;;;12.30;53.30;;;12.42;56.66;99398.50;5091379;28;19971;-35
2024/01/06 00:41:41;;;;;;;;;;;12.30;53.30;;;12.43;55.90;99395.28;5073952;28;19968;-35
2024/01/06 00:44:09;;;;;;;;;;;12.30;53.30;;;12.43;56.19;99390.25;5073536;28;20391;-35
2024/01/06 00:46:38;;;;;;;;;;;12.30;53.30;;;12.42;56.16;99386.84;5079692;28;19924;-35
2024/01/06 00:49:06;;;;;;;;;;;12.30;53.30;;;12.47;56.41;99384.78;5076832;28;20059;-35
2024/01/06 00:51:34;;;;;;;;;;;12.30;53.30;;;12.46;55.95;99395.56;5081213;28;19935;-35
2024/01/06 00:54:06;;;;;;;;;;;12.30;53.30;;;12.50;56.32;99407.72;5072454;28;19931;-34
2024/01/06 00:56:34;;;;;;;;;;;12.30;53.20;;;12.52;56.91;99406.25;5074163;28;19999;-35
2024/01/06 00:59:02;;;;;;;;;;;12.30;53.20;;;12.55;56.33;99409.09;5089896;28;20015;-35
2024/01/06 01:01:30;;;;;;;;;;;12.30;53.20;;;12.59;56.42;99412.78;5078411;28;19924;-35
2024/01/06 01:03:59;;;;;;;;;;;12.40;53.20;;;12.58;55.96;99411.94;5085596;28;19932;-35
2024/01/06 01:06:27;;;;;;;;;;;12.40;53.20;;;12.62;55.82;99408.97;5069666;28;19930;-36
2024/01/06 01:08:55;;;;;;;;;;;12.40;53.20;;;12.64;56.30;99417.56;5085794;28;20326;-35
2024/01/06 01:11:23;;;;;;;;;;;12.40;53.80;;;12.64;55.53;99417.56;5082079;28;19924;-34
2024/01/06 01:13:51;;;;;;;;;;;12.40;53.10;;;12.65;55.66;99419.31;5082073;28;20019;-36
2024/01/06 01:16:19;;;;;;;;;;;12.40;53.10;;;12.65;56.62;99421.84;5081034;28;19928;-36
2024/01/06 01:18:47;;;;;;;;;;;12.40;53.10;;;12.66;56.34;99420.22;5072795;28;19924;-36
2024/01/06 01:21:16;;;;;;;;;;;12.50;53.10;;;12.66;55.75;99421.13;5072747;28;20461;-36
2024/01/06 01:23:44;;;;;;;;;;;12.50;53.10;;;12.66;55.51;99421.13;5081453;28;19928;-35
2024/01/06 01:26:12;;;;;;;;;;;12.50;53.10;;;12.70;55.63;99418.19;5081459;28;20348;-35
2024/01/06 01:28:40;;;;;;;;;;;12.50;53.10;;;12.71;55.84;99424.97;5081102;28;19924;-35
2024/01/06 01:31:08;;;;;;;;;;;12.50;53.10;;;12.79;55.19;99428.28;5082628;28;19962;-35
2024/01/06 01:33:36;;;;;;;;;;;12.50;53.00;;;12.77;55.43;99430.63;5085010;28;20022;-36
2024/01/06 01:36:05;;;;;;;;;;;12.50;52.90;;;12.76;56.07;99436.41;5076035;28;19928;-35
2024/01/06 01:38:34;;;;;;;;;;;12.50;52.90;;;12.75;55.53;99432.13;5081456;28;19947;-35
2024/01/06 01:41:02;;;;;;;;;;;12.60;52.90;;;12.76;55.99;99433.91;5073432;28;19967;-35
2024/01/06 01:43:31;;;;;;;;;;;12.60;52.90;;;12.71;55.56;99430.00;5073420;28;19928;-35
2024/01/06 01:45:59;;;;;;;;;;;12.60;52.90;;;12.73;56.21;99433.56;5073645;28;19991;-35
2024/01/06 01:48:27;;;;;;;;;;;12.60;52.80;;;12.73;56.30;99443.63;5069676;28;19928;-34
2024/01/06 01:50:55;;;;;;;;;;;12.60;52.80;;;12.71;56.04;99435.03;5077207;28;19929;-35
2024/01/06 01:53:24;;;;;;;;;;;12.60;52.80;;;12.71;56.16;99455.13;5076604;28;19924;-35
2024/01/06 01:55:53;;;;;;;;;;;12.60;52.80;;;12.69;56.21;99456.63;5086011;28;19924;-37
2024/01/06 01:58:21;;;;;;;;;;;12.50;52.80;;;12.67;56.36;99459.69;5075310;28;19925;-36
2024/01/06 02:00:49;;;;;;;;;;;12.60;52.90;;;12.63;56.04;99456.00;5077934;28;19978;-35
2024/01/06 02:03:17;;;;;;;;;;;12.50;52.90;;;12.62;55.71;99453.31;5081133;28;19985;-36
2024/01/06 02:05:45;;;;;;;;;;;12.50;53.00;;;12.58;56.13;99452.13;5080616;28;19924;-36
2024/01/06 02:08:13;;;;;;;;;;;12.50;53.10;;;12.56;56.86;99466.16;5089250;28;19974;-37
2024/01/06 02:10:41;;;;;;;;;;;12.40;53.00;;;12.52;56.41;99461.50;5072052;28;19968;-36
2024/01/06 02:13:11;;;;;;;;;;;12.40;53.10;;;12.38;56.03;99441.66;5072276;28;19929;-36
2024/01/06 02:15:39;;;;;;;;;;;12.40;53.20;;;12.48;56.17;99459.44;5071853;28;19935;-36
2024/01/06 02:18:07;;;;;;;;;;;12.40;53.20;;;12.47;55.53;99452.63;5072373;28;20411;-36
2024/01/06 02:20:36;;;;;;;;;;;12.40;53.30;;;12.46;55.93;99455.84;5087070;28;19931;-35
2024/01/06 02:23:05;;;;;;;;;;;12.30;53.30;;;12.44;56.72;99455.72;5072031;28;19975;-35
2024/01/06 02:25:33;;;;;;;;;;;12.30;53.30;;;12.44;56.62;99457.34;5083556;28;20379;-36
2024/01/06 02:28:01;;;;;;;;;;;12.30;53.30;;;12.41;56.95;99462.03;5076069;28;19967;-33
2024/01/06 02:30:29;;;;;;;;;;;12.30;53.30;;;12.43;56.38;99465.59;5071455;28;19960;-33
2024/01/06 02:32:57;;;;;;;;;;;12.30;53.40;;;12.39;55.91;99453.47;5079606;28;20029;-33
2024/01/06 02:35:25;;;;;;;;;;;12.30;53.40;;;12.41;56.74;99460.41;5075407;28;20483;-36
2024/01/06 02:37:53;;;;;;;;;;;12.30;53.40;;;12.42;56.99;99473.88;5084449;28;20016;-36
2024/01/06 02:40:22;;;;;;;;;;;12.30;53.40;;;12.41;57.14;99467.06;5092254;28;19983;-36
2024/01/06 02:42:50;;;;;;;;;;;12.30;53.40;;;12.43;56.42;99470.63;5087255;28;20019;-36
2024/01/06 02:45:18;;;;;;;;;;;12.30;53.40;;;12.44;57.04;99472.41;5082115;28;20383;-36
2024/01/06 02:47:46;;;;;;;;;;;12.30;53.40;;;12.45;56.62;99474.22;5079751;28;19924;-36
2024/01/06 02:50:14;;;;;;;;;;;12.30;53.40;;;12.46;55.92;99476.84;5075775;28;19934;-36
2024/01/06 02:52:42;;;;;;;;;;;12.30;53.40;;;12.45;56.46;99470.06;5086822;28;19966;-35
2024/01/06 02:55:10;;;;;;;;;;;12.30;53.40;;;12.52;55.55;99486.63;5079446;28;19924;-36
2024/01/06 02:57:40;;;;;;;;;;;12.30;53.30;;;12.55;56.06;99486.97;5076389;28;19974;-36
2024/01/06 03:00:09;;;;;;;;;;;12.30;53.30;;;12.58;56.74;99487.31;5082757;28;19936;-36
2024/01/06 03:02:37;;;;;;;;;;;12.30;53.30;;;12.59;55.76;99486.53;5080034;28;19931;-36
2024/01/06 03:05:06;;;;;;;;;;;12.40;53.30;;;12.61;56.26;99487.59;5079808;28;19924;-36
2024/01/06 03:07:34;;;;;;;;;;;12.40;53.30;;;12.59;56.33;99491.56;5063428;28;19924;-36
2024/01/06 03:10:02;;;;;;;;;;;12.40;53.30;;;12.59;56.71;99498.22;5071343;28;19931;-35
2024/01/06 03:12:30;;;;;;;;;;;12.40;53.30;;;12.59;56.56;99499.09;5075105;28;19924;-36
2024/01/06 03:14:59;;;;;;;;;;;12.40;53.20;;;12.61;56.42;99502.69;5076349;28;20383;-36
2024/01/06 03:17:28;;;;;;;;;;;12.40;53.20;;;12.58;56.49;99497.34;5080941;28;19932;-36
2024/01/06 03:19:57;;;;;;;;;;;12.40;53.20;;;12.61;56.44;99502.69;5074796;28;19924;-33
2024/01/06 03:22:25;;;;;;;;;;;12.40;53.20;;;12.64;56.21;99503.00;5075278;28;19978;-37
2024/01/06 03:24:53;;;;;;;;;;;12.40;53.20;;;12.68;56.57;99500.06;5081704;28;19931;-35
2024/01/06 03:27:21;;;;;;;;;;;12.50;53.30;;;12.68;56.36;99504.19;5093437;28;20003;-36
2024/01/06 03:29:49;;;;;;;;;;;12.50;53.20;;;12.69;56.11;99496.84;5080702;28;20088;-35
2024/01/06 03:32:18;;;;;;;;;;;12.50;53.10;;;12.73;56.32;99503.94;5077266;28;20680;-35
2024/01/06 03:34:46;;;;;;;;;;;12.50;53.00;;;12.73;55.82;99508.06;5074791;28;19960;-36
2024/01/06 03:37:14;;;;;;;;;;;12.50;53.00;;;12.73;55.85;99508.97;5083308;28;19946;-33
2024/01/06 03:39:42;;;;;;;;;;;12.50;52.90;;;12.72;55.28;99514.72;5074281;28;20315;-33
2024/01/06 03:42:10;;;;;;;;;;;12.50;53.50;;;12.72;56.29;99522.25;5074787;28;19924;-33
2024/01/06 03:44:38;;;;;;;;;;;12.60;52.90;;;12.70;55.76;99521.22;5074724;28;20007;-33
2024/01/06 03:47:06;;;;;;;;;;;12.60;52.90;;;12.69;55.50;99516.94;5074644;28;19925;-34
2024/01/06 03:49:35;;;;;;;;;;;12.50;52.90;;;12.70;55.59;99512.81;5074532;28;19925;-34
2024/01/06 03:52:04;;;;;;;;;;;12.50;52.80;;;12.66;56.61;99521.63;5083366;28;20354;-33
2024/01/06 03:54:32;;;;;;;;;;;12.50;52.90;;;12.67;55.97;99525.94;5086013;28;19924;-34
2024/01/06 03:57:00;;;;;;;;;;;12.50;52.90;;;12.66;56.36;99531.69;5086574;28;19924;-34
2024/01/06 03:59:28;;;;;;;;;;;12.50;52.90;;;12.62;56.08;99534.63;5082836;28;19928;-34
2024/01/06 04:01:56;;;;;;;;;;;12.50;53.00;;;12.60;56.28;99535.19;5089541;28;19928;-35
2024/01/06 04:04:24;;;;;;;;;;;12.50;53.00;;;12.56;56.41;99528.97;5075874;28;20012;-35
2024/01/06 04:06:53;;;;;;;;;;;12.50;53.20;;;12.53;56.65;99536.16;5080422;28;19924;-33
2024/01/06 04:09:21;;;;;;;;;;;12.40;53.10;;;12.52;56.55;99536.88;5075346;28;19925;-34
2024/01/06 04:11:49;;;;;;;;;;;12.40;53.20;;;12.50;55.73;99540.88;5088068;28;20395;-33
2024/01/06 04:14:17;;;;;;;;;;;12.40;53.30;;;12.49;56.61;99546.63;5077257;28;19960;-33
2024/01/06 04:16:45;;;;;;;;;;;12.30;53.20;;;12.48;56.69;99549.88;5094467;28;20015;-35
2024/01/06 04:19:14;;;;;;;;;;;12.30;53.30;;;12.46;56.17;99551.31;5076542;28;20360;-35
2024/01/06 04:21:42;;;;;;;;;;;12.30;53.40;;;12.45;56.86;99549.56;5074018;28;19971;-35
2024/01/06 04:24:11;;;;;;;;;;;12.30;53.40;;;12.43;56.87;99551.03;5073840;28;19947;-34
2024/01/06 04:26:39;;;;;;;;;;;12.30;53.40;;;12.40;56.97;99560.72;5070149;28;19943;-35
2024/01/06 04:29:07;;;;;;;;;;;12.30;53.40;;;12.41;56.46;99562.50;5093250;28;20372;-34
2024/01/06 04:31:35;;;;;;;;;;;12.30;53.50;;;12.36;56.25;99566.16;5073949;28;19978;-35
2024/01/06 04:34:03;;;;;;;;;;;12.30;53.50;;;12.40;56.30;99563.25;5089388;28;19928;-34
2024/01/06 04:36:31;;;;;;;;;;;12.20;53.40;;;12.39;56.08;99567.38;5074167;28;20308;-35
2024/01/06 04:38:59;;;;;;;;;;;12.30;53.50;;;12.40;56.79;99563.25;5081329;28;19981;-35
2024/01/06 04:41:29;;;;;;;;;;;12.20;53.40;;;12.39;56.37;99562.34;5073602;28;19975;-35
2024/01/06 04:43:56;;;;;;;;;;;12.20;53.40;;;12.44;57.06;99567.88;5073651;28;19930;-37
2024/01/06 04:46:24;;;;;;;;;;;12.30;53.50;;;12.44;56.89;99567.88;5073471;28;19970;-37
2024/01/06 04:48:52;;;;;;;;;;;12.30;53.50;;;12.47;56.02;99573.22;5081255;28;20269;-35
2024/01/06 04:51:20;;;;;;;;;;;12.30;53.50;;;12.50;56.63;99573.53;5074776;28;19925;-34
2024/01/06 04:53:48;;;;;;;;;;;12.30;53.50;;;12.51;55.75;99564.38;5088301;28;19924;-34
2024/01/06 04:56:16;;;;;;;;;;;12.30;53.40;;;12.56;56.61;99574.19;5073948;28;20001;-35
2024/01/06 04:58:46;;;;;;;;;;;12.30;53.30;;;12.59;56.28;99574.50;5093090;28;20147;-34
2024/01/06 05:01:14;;;;;;;;;;;12.30;53.30;;;12.57;56.13;99575.06;5076738;28;19967;-34
2024/01/06 05:03:42;;;;;;;;;;;12.30;53.30;;;12.61;56.83;99587.22;5089356;28;19924;-35
2024/01/06 05:06:10;;;;;;;;;;;12.40;53.40;;;12.58;56.47;99597.88;5081313;28;20007;-35
2024/01/06 05:08:43;;;;;;;;;;;12.40;53.30;;;12.58;56.99;99595.34;5081140;28;19952;-35
2024/01/06 05:11:11;;;;;;;;;;;12.40;53.30;;;12.59;56.59;99594.59;5089543;28;20413;-35
2024/01/06 05:13:39;;;;;;;;;;;12.40;53.20;;;12.60;56.25;99601.41;5068776;28;20027;-36
2024/01/06 05:16:09;;;;;;;;;;;12.40;53.20;;;12.61;55.49;99598.16;5101424;22;20126;-36
2024/01/06 05:18:37;;;;;;;;;;;12.40;53.20;;;12.62;56.34;99599.94;5071970;28;20382;-36
2024/01/06 05:21:05;;;;;;;;;;;12.40;53.20;;;12.65;56.13;99604.38;5073112;28;19928;-36
2024/01/06 05:23:33;;;;;;;;;;;12.40;53.20;;;12.67;55.88;99606.34;5072450;28;20459;-36
2024/01/06 05:26:01;;;;;;;;;;;12.40;53.20;;;12.66;56.19;99607.06;5072651;28;19971;-35
2024/01/06 05:28:29;;;;;;;;;;;12.50;53.20;;;12.68;56.13;99610.66;5071937;28;19924;-36
2024/01/06 05:30:57;;;;;;;;;;;12.50;53.20;;;12.70;56.14;99621.75;5072696;28;20007;-36
2024/01/06 05:33:26;;;;;;;;;;;12.50;53.10;;;12.70;56.27;99624.28;5072188;28;19925;-36
2024/01/06 05:35:54;;;;;;;;;;;12.50;53.10;;;12.71;55.52;99626.03;5072584;28;19939;-36
2024/01/06 05:38:23;;;;;;;;;;;12.50;53.00;;;12.71;55.56;99631.06;5072400;28;19924;-36
2024/01/06 05:40:51;;;;;;;;;;;12.60;53.00;;;12.70;56.31;99634.31;5071959;28;19924;-36
2024/01/06 05:43:18;;;;;;;;;;;12.60;53.00;;;12.69;56.29;99632.53;5072209;28;20007;-36
2024/01/06 05:45:46;;;;;;;;;;;12.50;52.90;;;12.69;56.10;99636.66;5072118;28;19925;-36
2024/01/06 05:48:14;;;;;;;;;;;12.50;52.90;;;12.68;55.67;99635.78;5072405;28;19931;-36
2024/01/06 05:50:44;;;;;;;;;;;12.50;52.90;;;12.67;56.11;99639.00;5064080;28;19970;-35
2024/01/06 05:53:14;;;;;;;;;;;12.50;52.90;;;12.63;55.82;99636.91;5072169;28;19977;-36
2024/01/06 05:55:42;;;;;;;;;;;12.50;52.90;;;12.64;56.29;99646.25;5072055;28;19925;-36
2024/01/06 05:58:10;;;;;;;;;;;12.50;52.90;;;12.62;56.04;99645.19;5072523;28;19931;-36
2024/01/06 06:00:38;;;;;;;;;;;12.50;52.90;;;12.60;56.04;99651.66;5071250;28;20402;-36
2024/01/06 06:03:07;;;;;;;;;;;12.50;53.00;;;12.55;57.02;99652.81;5072356;28;19930;-35
2024/01/06 06:05:35;;;;;;;;;;;12.50;53.10;;;12.53;56.00;99654.25;5071870;28;19970;-36
2024/01/06 06:08:05;;;;;;;;;;;12.40;53.10;;;12.50;55.99;99664.00;5071949;28;19928;-35
2024/01/06 06:10:41;;;;;;;;;;;12.40;53.20;;;12.48;56.86;99670.47;5071729;28;19967;-36
2024/01/06 06:13:10;;;;;;;;;;;12.40;53.20;;;12.48;56.58;99675.47;5071885;28;20418;-36
2024/01/06 06:15:38;;;;;;;;;;;12.40;53.30;;;12.46;56.99;99681.97;5070115;28;20003;-36
2024/01/06 06:18:06;;;;;;;;;;;12.30;53.30;;;12.44;56.25;99678.41;5072030;28;19924;-36
2024/01/06 06:20:34;;;;;;;;;;;12.30;53.30;;;12.42;57.15;99679.84;5071054;28;20019;-36
2024/01/06 06:23:02;;;;;;;;;;;12.30;53.30;;;12.41;55.90;99683.09;5071934;28;20019;-36
2024/01/06 06:25:31;;;;;;;;;;;12.30;53.40;;;12.37;56.71;99681.00;5071426;28;20526;-35
2024/01/06 06:27:59;;;;;;;;;;;12.30;53.40;;;12.39;56.55;99679.56;5071891;28;19935;-35
2024/01/06 06:30:27;;;;;;;;;;;12.20;53.30;;;12.38;57.10;99687.81;5071160;28;19924;-36
2024/01/06 06:32:55;;;;;;;;;;;12.20;53.40;;;12.38;57.22;99685.28;5071824;28;20303;-35
2024/01/06 06:35:23;;;;;;;;;;;12.20;53.40;;;12.39;56.51;99692.09;5071420;28;19931;-36
2024/01/06 06:37:52;;;;;;;;;;;12.30;53.50;;;12.38;56.22;99687.81;5071418;28;19932;-35
2024/01/06 06:40:20;;;;;;;;;;;12.20;53.30;;;12.39;56.81;99694.63;5071153;28;20016;-35
2024/01/06 06:42:49;;;;;;;;;;;12.30;53.40;;;12.40;56.66;99696.38;5071779;28;19925;-35
2024/01/06 06:45:20;;;;;;;;;;;12.20;53.30;;;12.42;57.05;99704.97;5071534;28;20015;-36
2024/01/06 06:47:49;;;;;;;;;;;12.30;53.40;;;12.44;56.28;99708.56;5064590;28;19978;-36
2024/01/06 06:50:17;;;;;;;;;;;12.30;53.40;;;12.45;56.59;99713.75;5070831;28;19924;-35
2024/01/06 06:52:45;;;;;;;;;;;12.30;53.30;;;12.48;56.60;99720.72;5067179;28;20225;-36
2024/01/06 06:55:13;;;;;;;;;;;12.30;53.30;;;12.44;56.34;99713.59;5075715;28;19976;-36
2024/01/06 06:57:41;;;;;;;;;;;12.30;53.30;;;12.51;56.11;99723.56;5075581;28;19924;-36
2024/01/06 07:00:11;;;;;;;;;;;12.30;53.20;;;12.55;56.81;99722.25;5074899;28;20388;-36
2024/01/06 07:02:39;;;;;;;;;;;12.30;53.20;;;12.56;55.89;99724.03;5075339;28;19925;-36
2024/01/06 07:05:07;;;;;;;;;;;12.30;53.20;;;12.57;56.08;99730.88;5075059;28;19970;-36
2024/01/06 07:07:35;;;;;;;;;;;12.40;53.20;;;12.55;56.27;99737.34;5075333;28;19928;-36
2024/01/06 07:10:04;;;;;;;;;;;12.40;53.20;;;12.59;56.60;99742.84;5075007;28;19986;-36
2024/01/06 07:12:33;;;;;;;;;;;12.40;53.20;;;12.58;56.17;99753.66;5075238;28;19932;-36
2024/01/06 07:15:01;;;;;;;;;;;12.40;53.10;;;12.60;56.43;99757.19;5075051;28;19925;-35
2024/01/06 07:17:33;;;;;;;;;;;12.40;53.10;;;12.61;55.93;99753.97;5074868;28;19970;-36
2024/01/06 07:20:01;;;;;;;;;;;12.40;53.10;;;12.60;56.47;99764.75;5074722;28;20011;-36
2024/01/06 07:22:29;;;;;;;;;;;12.40;53.10;;;12.61;56.02;99764.00;5074829;28;20054;-36
2024/01/06 07:24:57;;;;;;;;;;;12.40;53.10;;;12.63;55.91;99770.13;5075054;28;20372;-35
2024/01/06 07:27:25;;;;;;;;;;;12.40;53.20;;;12.63;55.51;99772.63;5074873;28;19924;-36
2024/01/06 07:29:53;;;;;;;;;;;12.40;53.10;;;12.66;55.75;99777.06;5074198;28;19924;-36
2024/01/06 07:32:21;;;;;;;;;;;12.40;53.10;;;12.66;56.00;99777.06;5074619;28;19924;-36
2024/01/06 07:34:51;;;;;;;;;;;12.50;53.10;;;12.66;55.23;99783.00;5074703;28;20322;-36
2024/01/06 07:37:19;;;;;;;;;;;12.40;53.00;;;12.66;55.14;99783.00;5074722;28;20409;-36
2024/01/06 07:39:47;;;;;;;;;;;12.50;53.00;;;12.64;55.33;99794.53;5066092;28;19978;-36
2024/01/06 07:42:15;;;;;;;;;;;12.50;52.90;;;12.63;56.05;99796.84;5074812;28;20311;-36
2024/01/06 07:44:44;;;;;;;;;;;12.50;52.90;;;12.63;56.25;99792.72;5074392;28;19931;-35
2024/01/06 07:47:12;;;;;;;;;;;12.50;52.80;;;12.63;55.63;99805.28;5074755;28;19924;-37
2024/01/06 07:49:40;;;;;;;;;;;12.50;52.90;;;12.62;56.16;99808.53;5073721;28;20203;-36
2024/01/06 07:52:09;;;;;;;;;;;12.50;52.90;;;12.60;55.97;99815.00;5074629;28;20395;-36
2024/01/06 07:54:37;;;;;;;;;;;12.50;52.90;;;12.57;56.67;99807.16;5074351;28;20026;-35
2024/01/06 07:57:05;;;;;;;;;;;12.50;52.90;;;12.56;55.69;99815.41;5074491;28;19924;-36
2024/01/06 07:59:33;;;;;;;;;;;12.50;53.00;;;12.54;56.70;99815.94;5073756;28;20019;-36
2024/01/06 08:02:01;;;;;;;;;;;12.40;53.00;;;12.51;56.09;99826.59;5074922;28;19925;-36
2024/01/06 08:04:29;;;;;;;;;;;12.40;53.00;;;12.49;55.72;99838.06;5073384;28;19971;-35
2024/01/06 08:06:57;;;;;;;;;;;12.40;53.10;;;12.46;56.09;99843.63;5073939;28;19980;-36
2024/01/06 08:09:26;;;;;;;;;;;12.30;53.00;;;12.45;56.24;99846.00;5073386;28;19925;-36
2024/01/06 08:11:54;;;;;;;;;;;12.30;53.10;;;12.41;56.57;99851.41;5074099;28;20372;-36
2024/01/06 08:14:22;;;;;;;;;;;12.30;53.10;;;12.40;56.77;99853.03;5075333;28;20396;-36
2024/01/06 08:16:50;;;;;;;;;;;12.30;53.20;;;12.40;56.52;99858.03;5068516;28;20291;-36
2024/01/06 08:19:17;;;;;;;;;;;12.30;53.20;;;12.38;56.19;99868.66;5073184;28;20462;-35
2024/01/06 08:21:47;;;;;;;;;;;12.30;53.30;;;12.37;56.69;99872.81;5073844;28;19925;-36
2024/01/06 08:24:15;;;;;;;;;;;12.20;53.20;;;12.35;57.08;99869.22;5073693;28;20411;-36
2024/01/06 08:26:44;;;;;;;;;;;12.20;53.80;;;12.35;56.13;99883.38;5073904;28;19925;-35
2024/01/06 08:29:13;;;;;;;;;;;12.20;53.20;;;12.36;56.16;99882.66;5073092;28;20478;-36
2024/01/06 08:31:41;;;;;;;;;;;12.20;53.20;;;12.35;56.64;99888.41;5073748;28;19925;-35
2024/01/06 08:34:09;;;;;;;;;;;12.20;53.20;;;12.36;56.67;99885.19;5073823;28;19925;-36
2024/01/06 08:36:38;;;;;;;;;;;12.20;53.20;;;12.36;56.67;99890.22;5073204;28;19928;-36
2024/01/06 08:39:06;;;;;;;;;;;12.20;53.20;;;12.36;56.32;99892.72;5073382;28;19931;-36
2024/01/06 08:41:34;;;;;;;;;;;12.20;53.20;;;12.39;56.11;99910.66;5073980;28;20054;-36
2024/01/06 08:44:04;;;;;;;;;;;12.20;53.10;;;12.40;56.08;99908.28;5073543;28;19924;-35
2024/01/06 08:46:33;;;;;;;;;;;12.20;53.10;;;12.42;55.87;99916.00;5072774;28;20120;-36
2024/01/06 08:49:01;;;;;;;;;;;12.30;53.20;;;12.46;55.58;99925.66;5072909;28;20023;-36
2024/01/06 08:51:30;;;;;;;;;;;12.30;53.20;;;12.47;56.32;99924.94;5073276;28;19928;-36
2024/01/06 08:53:58;;;;;;;;;;;12.30;53.20;;;12.21;56.14;99884.38;5073592;28;19925;-36
2024/01/06 08:56:27;;;;;;;;;;;12.30;53.20;;;12.51;56.40;99932.13;5073101;28;19924;-36
2024/01/06 08:58:56;;;;;;;;;;;12.30;53.10;;;12.50;56.20;99935.34;5072591;28;19954;-36
2024/01/06 09:01:26;;;;;;;;;;;12.30;53.10;;;12.53;55.27;99930.63;5073322;28;19951;-36
2024/01/06 09:03:54;;;;;;;;;;;12.30;53.00;;;12.54;56.27;99932.44;5073467;28;20295;-36
2024/01/06 09:06:22;;;;;;;;;;;12.30;53.00;;;12.54;56.29;99942.47;5073595;28;19924;-36
2024/01/06 09:08:50;;;;;;;;;;;12.30;52.90;;;12.55;56.51;99944.28;5074886;28;20010;-36
2024/01/06 09:11:18;;;;;;;;;;;12.40;53.00;;;12.54;56.07;99947.50;5076129;28;20384;-36
2024/01/06 09:13:46;;;;;;;;;;;12.40;53.00;;;12.57;55.97;99947.88;5076240;28;20376;-36
2024/01/06 09:16:14;;;;;;;;;;;12.40;53.00;;;12.56;55.56;99961.16;5073518;28;19924;-36
2024/01/06 09:18:43;;;;;;;;;;;12.40;52.90;;;12.59;55.91;99956.44;5074250;28;19931;-36
2024/01/06 09:21:11;;;;;;;;;;;12.40;53.60;;;12.58;56.51;99964.72;5075043;28;20356;-36
2024/01/06 09:23:39;;;;;;;;;;;12.40;53.00;;;12.58;55.44;99963.84;5074362;28;19935;-36
2024/01/06 09:26:07;;;;;;;;;;;12.40;53.10;;;12.57;55.31;99962.94;5073883;28;20014;-35
2024/01/06 09:28:35;;;;;;;;;;;12.40;53.00;;;12.59;56.10;99971.53;5077055;28;19974;-36
2024/01/06 09:31:06;;;;;;;;;;;12.40;53.00;;;12.59;56.02;99975.66;5077258;28;19925;-36
2024/01/06 09:33:34;;;;;;;;;;;12.40;53.00;;;12.59;56.44;99986.59;5077104;28;19974;-36
2024/01/06 09:36:04;;;;;;;;;;;12.40;52.90;;;12.59;55.45;99991.63;5077663;28;19924;-37
2024/01/06 09:38:33;;;;;;;;;;;12.40;52.90;;;12.57;55.73;99998.13;5073297;28;19986;-36
2024/01/06 09:41:01;;;;;;;;;;;12.40;52.80;;;12.51;55.59;99997.44;5073399;28;19925;-37
2024/01/06 09:43:30;;;;;;;;;;;12.40;52.80;;;12.56;56.08;100003.88;5072754;28;20434;-36
2024/01/06 09:46:07;;;;;;;;;;;12.40;52.70;;;12.56;55.53;100010.50;5073139;28;20202;-34
2024/01/06 09:48:36;;;;;;;;;;;12.40;52.70;;;12.54;56.44;100010.34;5073513;28;19982;-35
2024/01/06 09:51:06;;;;;;;;;;;12.40;52.80;;;12.52;55.44;100008.38;5073775;28;19947;-35
2024/01/06 09:53:37;;;;;;;;;;;12.40;52.80;;;12.51;56.60;100017.53;5074299;28;19931;-35
2024/01/06 09:56:05;;;;;;;;;;;12.40;52.80;;;12.48;56.13;100022.22;5072925;28;19931;-35
2024/01/06 09:58:34;;;;;;;;;;;12.40;52.90;;;12.46;56.12;100027.06;5073504;28;20121;-36
2024/01/06 10:01:03;;;;;;;;;;;12.30;53.40;;;12.43;55.89;100024.22;5073071;28;19929;-36
2024/01/06 10:03:31;;;;;;;;;;;12.30;52.90;;;12.42;56.26;100031.56;5072574;28;19979;-36
2024/01/06 10:06:03;;;;;;;;;;;12.30;52.90;;;12.40;56.34;100027.97;5072317;28;19928;-36
2024/01/06 10:08:33;;;;;;;;;;;12.30;53.00;;;12.37;55.83;100028.56;5072368;28;20468;-36
2024/01/06 10:11:03;;;;;;;;;;;12.30;53.00;;;12.36;56.32;100029.28;5072376;28;19987;-35
2024/01/06 10:13:31;;;;;;;;;;;12.20;52.90;;;12.36;56.54;100025.84;5072257;28;19978;-36
2024/01/06 10:15:59;;;;;;;;;;;12.20;52.90;;;12.32;55.94;100031.28;5066851;28;20354;-36
2024/01/06 10:18:29;;;;;;;;;;;12.20;53.00;;;12.32;56.03;100033.78;5071633;28;19931;-36
2024/01/06 10:20:57;;;;;;;;;;;12.20;53.00;;;12.31;56.37;100035.41;5064497;28;19924;-36
2024/01/06 10:23:29;;;;;;;;;;;12.20;53.00;;;12.31;56.25;100047.06;5075648;28;20015;-37
2024/01/06 10:25:58;;;;;;;;;;;12.20;53.00;;;12.30;56.77;100050.28;5076910;28;19924;-37
2024/01/06 10:28:31;;;;;;;;;;;12.20;53.00;;;12.30;56.11;100045.25;5078797;28;20006;-37
2024/01/06 10:30:59;;;;;;;;;;;12.20;53.00;;;12.31;55.63;100054.59;5077365;28;20187;-36
2024/01/06 10:33:27;;;;;;;;;;;12.20;53.00;;;12.31;57.07;100050.47;5078392;28;19987;-36
2024/01/06 10:35:56;;;;;;;;;;;12.10;52.90;;;12.32;56.22;100049.75;5077985;28;19925;-35
2024/01/06 10:38:24;;;;;;;;;;;12.20;52.90;;;12.32;55.79;100048.84;5073126;28;19935;-36
2024/01/06 10:41:00;;;;;;;;;;;12.20;53.00;;;12.34;55.97;100048.28;5071387;28;20043;-36
2024/01/06 10:43:28;;;;;;;;;;;12.20;52.90;;;12.36;56.24;100046.84;5071727;28;20039;-36
2024/01/06 10:45:57;;;;;;;;;;;12.20;52.90;;;12.36;55.54;100050.97;5071378;28;19925;-36
2024/01/06 10:48:26;;;;;;;;;;;12.20;52.90;;;12.38;55.25;100044.53;5072222;28;20292;-37
2024/01/06 10:50:55;;;;;;;;;;;12.20;52.90;;;12.38;55.54;100047.03;5071680;28;19931;-36
2024/01/06 10:53:23;;;;;;;;;;;12.20;52.90;;;12.39;55.63;100043.81;5072018;28;19931;-36
2024/01/06 10:55:52;;;;;;;;;;;12.20;52.80;;;12.41;55.37;100052.38;5071303;28;20353;-35
2024/01/06 10:58:24;;;;;;;;;;;12.30;52.90;;;12.44;55.18;100051.13;5072115;28;19924;-36
2024/01/06 11:00:52;;;;;;;;;;;12.30;52.90;;;12.45;55.72;100060.47;5071665;28;19932;-36
2024/01/06 11:03:20;;;;;;;;;;;12.30;52.90;;;12.44;55.76;100060.28;5071829;28;19929;-37
2024/01/06 11:05:49;;;;;;;;;;;12.30;52.90;;;12.49;55.40;100054.16;5071782;28;20346;-34
2024/01/06 11:08:17;;;;;;;;;;;12.30;52.90;;;12.48;55.89;100062.41;5071811;28;19946;-36
2024/01/06 11:10:45;;;;;;;;;;;12.30;52.90;;;12.51;55.42;100051.81;5070777;28;20295;-37
2024/01/06 11:13:13;;;;;;;;;;;12.30;52.90;;;12.52;55.49;100064.53;5071288;28;19968;-37
2024/01/06 11:15:44;;;;;;;;;;;12.30;52.90;;;12.55;56.13;100069.91;5071351;28;19967;-37
2024/01/06 11:18:33;;;;;;;;;;;12.30;52.80;;;12.58;55.34;100062.75;5071243;28;20376;-35
2024/01/06 11:21:18;;;;;;;;;;;12.40;52.70;;;12.62;55.43;100067.38;5063538;28;20029;-36
2024/01/06 11:23:47;;;;;;;;;;;12.40;52.70;;;12.64;55.37;100065.03;5071308;28;19924;-36